ADDS METAR Data INFO
IDs: Format: Raw Decoded Include TAF

Data at: 1751 UTC 21 Oct 2017

KIOB 211735Z AUTO 24009G14KT 200V260 10SM CLR 23/10 A3028 RMK AO2
KIOB 211715Z AUTO 26007KT 10SM CLR 23/11 A3029 RMK AO2
KIOB 211655Z AUTO 23008KT 10SM CLR 22/11 A3030 RMK AO2
KIOB 211635Z AUTO 25009KT 10SM CLR 22/11 A3030 RMK AO2
KIOB 211615Z AUTO 24006KT 10SM CLR 22/11 A3030 RMK AO2
KIOB 211555Z AUTO 24006KT 10SM CLR 20/11 A3031 RMK AO2
KIOB 211535Z AUTO 24009KT 10SM CLR 20/10 A3031 RMK AO2
KIOB 211515Z AUTO 23005KT 10SM CLR 20/12 A3031 RMK AO2
KIOB 211455Z AUTO 23005KT 10SM CLR 18/12 A3031 RMK AO2
KIOB 211435Z AUTO 21005KT 10SM CLR 17/12 A3030 RMK AO2
KIOB 211415Z AUTO 20004KT 10SM CLR 16/13 A3030 RMK AO2
KIOB 211355Z AUTO 00000KT 10SM CLR 13/11 A3030 RMK AO2
KIOB 211335Z AUTO 00000KT 10SM CLR 10/10 A3030 RMK AO2
KIOB 211315Z AUTO 00000KT 10SM CLR 09/08 A3030 RMK AO2
KIOB 211255Z AUTO 00000KT 10SM CLR 08/07 A3029 RMK AO2
KIOB 211235Z AUTO 00000KT 10SM CLR 08/07 A3027 RMK AO2
KIOB 211215Z AUTO 00000KT 10SM CLR 08/08 A3027 RMK AO2
KIOB 211155Z AUTO 00000KT 10SM CLR 07/07 A3026 RMK AO2
KIOB 211135Z AUTO 21003KT 7SM CLR 06/06 A3026 RMK AO2
KIOB 211115Z AUTO 00000KT 10SM CLR 08/07 A3025 RMK AO2
KIOB 211055Z AUTO 00000KT 10SM CLR 08/08 A3025 RMK AO2
KIOB 211035Z AUTO 00000KT 10SM CLR 06/06 A3024 RMK AO2
KIOB 211015Z AUTO 00000KT 10SM CLR 08/08 A3023 RMK AO2
KIOB 210955Z AUTO 17003KT 10SM CLR 07/07 A3023 RMK AO2
KIOB 210935Z AUTO 16003KT 10SM CLR 08/08 A3022 RMK AO2
KIOB 210915Z AUTO 00000KT 10SM CLR 07/07 A3022 RMK AO2
KIOB 210855Z AUTO 00000KT 10SM CLR 08/07 A3022 RMK AO2
KIOB 210835Z AUTO 15003KT 10SM CLR 08/08 A3022 RMK AO2
KIOB 210815Z AUTO 00000KT 10SM CLR 08/08 A3022 RMK AO2
KIOB 210755Z AUTO 17003KT 10SM CLR 08/08 A3022 RMK AO2
KIOB 210735Z AUTO 16003KT 10SM CLR 10/09 A3022 RMK AO2
KIOB 210715Z AUTO 00000KT 10SM CLR 10/09 A3022 RMK AO2
KIOB 210655Z AUTO 16003KT 10SM CLR 10/09 A3023 RMK AO2
KIOB 210635Z AUTO 00000KT 10SM CLR 09/08 A3023 RMK AO2
KIOB 210615Z AUTO 15003KT 10SM CLR 09/08 A3022 RMK AO2
KIOB 210555Z AUTO 17004KT 10SM CLR 08/08 A3022 RMK AO2
KIOB 210535Z AUTO 16005KT 10SM CLR 08/08 A3022 RMK AO2
KIOB 210515Z AUTO 15005KT 10SM CLR 10/09 A3023 RMK AO2
KIOB 210455Z AUTO 16003KT 10SM CLR 10/09 A3023 RMK AO2
KIOB 210435Z AUTO 16003KT 10SM CLR 09/09 A3023 RMK AO2
KIOB 210415Z AUTO 19003KT 10SM CLR 10/08 A3023 RMK AO2
KIOB 210355Z AUTO 18003KT 10SM CLR 10/09 A3023 RMK AO2
KIOB 210335Z AUTO 14004KT 10SM CLR 11/11 A3023 RMK AO2
KIOB 210315Z AUTO 16004KT 10SM CLR 11/10 A3024 RMK AO2
KIOB 210255Z AUTO 16003KT 10SM CLR 11/10 A3024 RMK AO2
KIOB 210235Z AUTO 16004KT 10SM CLR 13/11 A3024 RMK AO2
KIOB 210215Z AUTO 17003KT 10SM CLR 12/11 A3024 RMK AO2
KIOB 210155Z AUTO 00000KT 10SM CLR 12/11 A3024 RMK AO2
KIOB 210135Z AUTO 00000KT 10SM CLR 12/11 A3024 RMK AO2
KIOB 210115Z AUTO 00000KT 10SM CLR 13/12 A3023 RMK AO2
KIOB 210055Z AUTO 00000KT 10SM CLR 12/11 A3023 RMK AO2
KIOB 210035Z AUTO 00000KT 10SM CLR 15/12 A3023 RMK AO2
KIOB 210015Z AUTO 00000KT 10SM CLR 14/12 A3023 RMK AO2
KIOB 202355Z AUTO 00000KT 10SM CLR 16/12 A3023 RMK AO2
KIOB 202335Z AUTO 00000KT 10SM CLR 17/12 A3023 RMK AO2
KIOB 202315Z AUTO 13003KT 10SM CLR 18/12 A3023 RMK AO2
KIOB 202255Z AUTO 00000KT 10SM CLR 21/12 A3023 RMK AO2
KIOB 202235Z AUTO 15003KT 10SM CLR 22/12 A3022 RMK AO2
KIOB 202215Z AUTO 00000KT 10SM CLR 23/12 A3023 RMK AO2
KIOB 202155Z AUTO 15004KT 10SM CLR 23/12 A3023 RMK AO2
KIOB 202135Z AUTO 15004KT 10SM CLR 23/12 A3023 RMK AO2
KIOB 202115Z AUTO 00000KT 10SM CLR 23/12 A3023 RMK AO2
KIOB 202055Z AUTO 23003KT 10SM CLR 24/13 A3023 RMK AO2
KIOB 202035Z AUTO 18004KT 10SM CLR 23/12 A3024 RMK AO2
KIOB 202015Z AUTO 00000KT 10SM CLR 23/11 A3024 RMK AO2
KIOB 201955Z AUTO 16003KT 10SM CLR 23/11 A3024 RMK AO2
KIOB 201935Z AUTO 00000KT 10SM CLR 23/11 A3025 RMK AO2
KIOB 201915Z AUTO 00000KT 10SM CLR 23/11 A3025 RMK AO2
KIOB 201855Z AUTO 00000KT 10SM CLR 22/10 A3026 RMK AO2
KIOB 201835Z AUTO 00000KT 10SM CLR 22/11 A3027 RMK AO2
KIOB 201815Z AUTO 15003KT 10SM CLR 22/10 A3028 RMK AO2
KIOB 201755Z AUTO 00000KT 10SM CLR 22/11 A3029 RMK AO2
KIOB 201735Z AUTO 11004KT 10SM CLR 22/11 A3030 RMK AO2
KIOB 201715Z AUTO 10003KT 10SM CLR 21/11 A3031 RMK AO2
KIOB 201655Z AUTO 18004KT 10SM CLR 21/11 A3032 RMK AO2
KIOB 201635Z AUTO 13004KT 10SM CLR 21/11 A3033 RMK AO2
KIOB 201615Z AUTO 00000KT 10SM CLR 20/11 A3033 RMK AO2
KIOB 201555Z AUTO 00000KT 10SM CLR 20/10 A3035 RMK AO2
KIOB 201535Z AUTO 00000KT 10SM CLR 19/11 A3035 RMK AO2
KIOB 201515Z AUTO 00000KT 10SM CLR 18/11 A3035 RMK AO2
KIOB 201455Z AUTO 00000KT 10SM CLR 17/11 A3036 RMK AO2
KIOB 201435Z AUTO 00000KT 10SM CLR 16/11 A3036 RMK AO2
KIOB 201415Z AUTO 23003KT 10SM CLR 15/11 A3036 RMK AO2
KIOB 201355Z AUTO 24004KT 10SM CLR 14/10 A3035 RMK AO2
KIOB 201335Z AUTO 00000KT 10SM CLR 13/11 A3035 RMK AO2
KIOB 201315Z AUTO 00000KT 10SM CLR 11/10 A3035 RMK AO2
KIOB 201255Z AUTO 00000KT 10SM CLR 10/08 A3034 RMK AO2
KIOB 201235Z AUTO 00000KT 10SM CLR 08/08 A3033 RMK AO2
KIOB 201215Z AUTO 22003KT 10SM CLR 07/07 A3033 RMK AO2
KIOB 201155Z AUTO 23004KT 10SM CLR 06/06 A3033 RMK AO2
KIOB 201135Z AUTO 23004KT 10SM CLR 06/06 A3032 RMK AO2
KIOB 201115Z AUTO 23004KT 10SM CLR 06/05 A3032 RMK AO2
KIOB 201055Z AUTO 23004KT 10SM CLR 06/06 A3032 RMK AO2
KIOB 201035Z AUTO 23004KT 10SM CLR 06/06 A3031 RMK AO2
KIOB 201015Z AUTO 23004KT 10SM CLR 06/06 A3031 RMK AO2
KIOB 200955Z AUTO 23004KT 10SM CLR 07/07 A3030 RMK AO2
KIOB 200915Z AUTO 23004KT 10SM CLR 07/06 A3029 RMK AO2
KIOB 200855Z AUTO 22003KT 10SM CLR 07/07 A3029 RMK AO2
KIOB 200835Z AUTO 23005KT 10SM CLR 08/07 A3028 RMK AO2
KIOB 200815Z AUTO 24003KT 10SM CLR 08/07 A3028 RMK AO2
KIOB 200755Z AUTO 24005KT 10SM CLR 08/08 A3027 RMK AO2
KIOB 200735Z AUTO 23005KT 10SM CLR 07/07 A3027 RMK AO2
KIOB 200715Z AUTO 23005KT 10SM CLR 08/07 A3028 RMK AO2
KIOB 200655Z AUTO 22005KT 10SM CLR 08/07 A3028 RMK AO2
KIOB 200635Z AUTO 23004KT 10SM CLR 08/08 A3028 RMK AO2
KIOB 200615Z AUTO 23005KT 10SM CLR 08/07 A3028 RMK AO2
KIOB 200555Z AUTO 22004KT 10SM CLR 08/07 A3028 RMK AO2